Terminal Aerodrome Forecast
Issued by NWS

Home | Current Version | Previous Version | Text Only | Print | Product List | Glossary On
Versions: 1 2 3 4 5 6 7 8 9 10 11 12 13 14 15 16 17 18 19 20 21 22 23 24 25 26 27 28 29 30
000
FTUS45 KPSR 232326
TAFSDL
TAF
KSDL 232326Z 2400/2424 25008KT P6SM FEW080 SCT140 BKN250
     FM240300 06015G25KT P6SM VCTS SCT080 BKN100CB BKN200
     FM240600 10006KT P6SM -SHRA FEW080 BKN100 OVC200
     FM241900 20007KT P6SM SCT080 SCT120 BKN250=

USA.gov is the U.S. government's official web portal to all federal, state and local government web resources and services.